sensor_id;sensor_type;location;lat;lon;timestamp;P1;durP1;ratioP1;P2;durP2;ratioP2
3867;SDS011;1949;48.152;11.528;2024-03-02T00:05:40;8.27;;;4.60;;
3867;SDS011;1949;48.152;11.528;2024-03-02T00:08:12;7.77;;;4.60;;
3867;SDS011;1949;48.152;11.528;2024-03-02T00:10:42;9.97;;;5.27;;
3867;SDS011;1949;48.152;11.528;2024-03-02T00:13:09;7.87;;;5.30;;
3867;SDS011;1949;48.152;11.528;2024-03-02T00:15:42;8.87;;;4.47;;
3867;SDS011;1949;48.152;11.528;2024-03-02T00:18:38;6.57;;;4.60;;
3867;SDS011;1949;48.152;11.528;2024-03-02T00:21:05;9.67;;;5.03;;
3867;SDS011;1949;48.152;11.528;2024-03-02T00:23:34;9.13;;;4.57;;
3867;SDS011;1949;48.152;11.528;2024-03-02T00:28:33;7.37;;;4.60;;
3867;SDS011;1949;48.152;11.528;2024-03-02T00:31:03;6.67;;;4.30;;
3867;SDS011;1949;48.152;11.528;2024-03-02T00:33:45;8.67;;;4.87;;
3867;SDS011;1949;48.152;11.528;2024-03-02T00:41:32;8.07;;;4.80;;
3867;SDS011;1949;48.152;11.528;2024-03-02T00:44:03;7.30;;;4.57;;
3867;SDS011;1949;48.152;11.528;2024-03-02T00:46:34;10.20;;;4.40;;
3867;SDS011;1949;48.152;11.528;2024-03-02T00:51:44;6.87;;;4.53;;
3867;SDS011;1949;48.152;11.528;2024-03-02T00:54:14;8.23;;;4.20;;
3867;SDS011;1949;48.152;11.528;2024-03-02T00:56:43;10.10;;;5.80;;
3867;SDS011;1949;48.152;11.528;2024-03-02T00:59:10;10.00;;;5.47;;
3867;SDS011;1949;48.152;11.528;2024-03-02T01:01:39;9.90;;;5.10;;
3867;SDS011;1949;48.152;11.528;2024-03-02T01:04:07;8.33;;;5.20;;
3867;SDS011;1949;48.152;11.528;2024-03-02T01:06:34;8.20;;;4.73;;
3867;SDS011;1949;48.152;11.528;2024-03-02T01:09:01;6.77;;;4.00;;
3867;SDS011;1949;48.152;11.528;2024-03-02T01:11:27;7.17;;;4.20;;
3867;SDS011;1949;48.152;11.528;2024-03-02T01:13:53;8.40;;;5.00;;
3867;SDS011;1949;48.152;11.528;2024-03-02T01:16:19;7.50;;;4.57;;
3867;SDS011;1949;48.152;11.528;2024-03-02T01:18:45;7.40;;;4.50;;
3867;SDS011;1949;48.152;11.528;2024-03-02T01:21:16;9.83;;;4.87;;
3867;SDS011;1949;48.152;11.528;2024-03-02T01:23:42;8.40;;;5.53;;
3867;SDS011;1949;48.152;11.528;2024-03-02T01:26:13;11.00;;;5.70;;
3867;SDS011;1949;48.152;11.528;2024-03-02T01:28:39;9.10;;;5.17;;
3867;SDS011;1949;48.152;11.528;2024-03-02T01:33:37;11.30;;;4.90;;
3867;SDS011;1949;48.152;11.528;2024-03-02T01:38:33;7.00;;;4.50;;
3867;SDS011;1949;48.152;11.528;2024-03-02T01:40:59;7.80;;;5.57;;
3867;SDS011;1949;48.152;11.528;2024-03-02T01:43:28;9.17;;;5.37;;
3867;SDS011;1949;48.152;11.528;2024-03-02T01:45:55;6.23;;;4.70;;
3867;SDS011;1949;48.152;11.528;2024-03-02T01:48:21;8.50;;;5.97;;
3867;SDS011;1949;48.152;11.528;2024-03-02T01:50:47;7.00;;;4.83;;
3867;SDS011;1949;48.152;11.528;2024-03-02T01:53:13;7.50;;;4.70;;
3867;SDS011;1949;48.152;11.528;2024-03-02T01:55:39;11.50;;;4.83;;
3867;SDS011;1949;48.152;11.528;2024-03-02T01:58:06;7.40;;;4.73;;
3867;SDS011;1949;48.152;11.528;2024-03-02T02:03:21;10.67;;;4.90;;
3867;SDS011;1949;48.152;11.528;2024-03-02T02:05:53;10.20;;;5.33;;
3867;SDS011;1949;48.152;11.528;2024-03-02T02:08:30;7.90;;;4.73;;
3867;SDS011;1949;48.152;11.528;2024-03-02T02:10:57;10.13;;;4.80;;
3867;SDS011;1949;48.152;11.528;2024-03-02T02:13:29;8.43;;;4.50;;
3867;SDS011;1949;48.152;11.528;2024-03-02T02:15:55;7.37;;;4.70;;
3867;SDS011;1949;48.152;11.528;2024-03-02T02:18:29;8.20;;;4.40;;
3867;SDS011;1949;48.152;11.528;2024-03-02T02:20:56;10.13;;;5.00;;
3867;SDS011;1949;48.152;11.528;2024-03-02T02:23:25;8.97;;;4.83;;
3867;SDS011;1949;48.152;11.528;2024-03-02T02:28:20;6.23;;;3.80;;
3867;SDS011;1949;48.152;11.528;2024-03-02T02:30:52;10.53;;;4.83;;
3867;SDS011;1949;48.152;11.528;2024-03-02T02:33:32;7.70;;;4.57;;
3867;SDS011;1949;48.152;11.528;2024-03-02T02:36:00;7.13;;;4.27;;
3867;SDS011;1949;48.152;11.528;2024-03-02T02:38:30;10.70;;;5.47;;
3867;SDS011;1949;48.152;11.528;2024-03-02T02:41:03;6.50;;;4.00;;
3867;SDS011;1949;48.152;11.528;2024-03-02T02:43:31;6.73;;;4.00;;
3867;SDS011;1949;48.152;11.528;2024-03-02T02:45:59;9.60;;;4.93;;
3867;SDS011;1949;48.152;11.528;2024-03-02T02:48:27;8.60;;;3.97;;
3867;SDS011;1949;48.152;11.528;2024-03-02T02:53:22;5.40;;;3.80;;
3867;SDS011;1949;48.152;11.528;2024-03-02T02:55:48;10.60;;;5.27;;
3867;SDS011;1949;48.152;11.528;2024-03-02T02:58:19;17.53;;;5.27;;
3867;SDS011;1949;48.152;11.528;2024-03-02T03:05:50;7.23;;;5.40;;
3867;SDS011;1949;48.152;11.528;2024-03-02T03:08:17;15.73;;;4.80;;
3867;SDS011;1949;48.152;11.528;2024-03-02T03:10:50;10.00;;;4.97;;
3867;SDS011;1949;48.152;11.528;2024-03-02T03:13:23;11.10;;;5.20;;
3867;SDS011;1949;48.152;11.528;2024-03-02T03:15:49;15.57;;;5.90;;
3867;SDS011;1949;48.152;11.528;2024-03-02T03:18:15;17.73;;;5.77;;
3867;SDS011;1949;48.152;11.528;2024-03-02T03:20:41;9.73;;;5.20;;
3867;SDS011;1949;48.152;11.528;2024-03-02T03:23:14;27.80;;;12.57;;
3867;SDS011;1949;48.152;11.528;2024-03-02T03:25:41;46.80;;;19.40;;
3867;SDS011;1949;48.152;11.528;2024-03-02T03:28:19;68.60;;;29.60;;
3867;SDS011;1949;48.152;11.528;2024-03-02T03:30:50;80.20;;;30.93;;
3867;SDS011;1949;48.152;11.528;2024-03-02T03:33:16;49.83;;;22.17;;
3867;SDS011;1949;48.152;11.528;2024-03-02T03:38:22;50.90;;;22.60;;
3867;SDS011;1949;48.152;11.528;2024-03-02T03:40:50;50.03;;;23.00;;
3867;SDS011;1949;48.152;11.528;2024-03-02T03:43:15;39.30;;;17.47;;
3867;SDS011;1949;48.152;11.528;2024-03-02T03:45:42;19.63;;;8.53;;
3867;SDS011;1949;48.152;11.528;2024-03-02T03:48:10;11.20;;;5.47;;
3867;SDS011;1949;48.152;11.528;2024-03-02T03:53:06;11.90;;;5.90;;
3867;SDS011;1949;48.152;11.528;2024-03-02T03:55:32;7.17;;;5.20;;
3867;SDS011;1949;48.152;11.528;2024-03-02T03:57:59;11.00;;;5.53;;
3867;SDS011;1949;48.152;11.528;2024-03-02T04:00:26;14.27;;;6.10;;
3867;SDS011;1949;48.152;11.528;2024-03-02T04:02:55;10.13;;;5.50;;
3867;SDS011;1949;48.152;11.528;2024-03-02T04:05:22;11.10;;;6.27;;
3867;SDS011;1949;48.152;11.528;2024-03-02T04:07:48;10.87;;;5.77;;
3867;SDS011;1949;48.152;11.528;2024-03-02T04:10:14;9.43;;;5.13;;
3867;SDS011;1949;48.152;11.528;2024-03-02T04:12:41;10.90;;;5.63;;
3867;SDS011;1949;48.152;11.528;2024-03-02T04:15:07;10.30;;;6.07;;
3867;SDS011;1949;48.152;11.528;2024-03-02T04:17:39;10.13;;;5.50;;
3867;SDS011;1949;48.152;11.528;2024-03-02T04:20:06;11.93;;;5.60;;
3867;SDS011;1949;48.152;11.528;2024-03-02T04:22:38;9.57;;;4.70;;
3867;SDS011;1949;48.152;11.528;2024-03-02T04:25:04;12.33;;;5.10;;
3867;SDS011;1949;48.152;11.528;2024-03-02T04:27:39;15.67;;;7.80;;
3867;SDS011;1949;48.152;11.528;2024-03-02T04:30:08;42.53;;;18.50;;
3867;SDS011;1949;48.152;11.528;2024-03-02T04:35:14;23.70;;;10.73;;
3867;SDS011;1949;48.152;11.528;2024-03-02T04:37:41;20.83;;;10.03;;
3867;SDS011;1949;48.152;11.528;2024-03-02T04:40:20;40.30;;;18.60;;
3867;SDS011;1949;48.152;11.528;2024-03-02T04:42:46;18.00;;;9.60;;
3867;SDS011;1949;48.152;11.528;2024-03-02T04:45:12;9.07;;;5.50;;
3867;SDS011;1949;48.152;11.528;2024-03-02T04:47:38;9.40;;;5.30;;
3867;SDS011;1949;48.152;11.528;2024-03-02T04:50:03;8.40;;;5.37;;
3867;SDS011;1949;48.152;11.528;2024-03-02T04:52:30;8.37;;;4.73;;
3867;SDS011;1949;48.152;11.528;2024-03-02T04:54:55;9.23;;;5.90;;
3867;SDS011;1949;48.152;11.528;2024-03-02T04:57:40;7.60;;;5.20;;
3867;SDS011;1949;48.152;11.528;2024-03-02T05:00:05;11.77;;;5.90;;
3867;SDS011;1949;48.152;11.528;2024-03-02T05:02:35;8.63;;;5.00;;
3867;SDS011;1949;48.152;11.528;2024-03-02T05:05:01;19.40;;;9.70;;
3867;SDS011;1949;48.152;11.528;2024-03-02T05:07:28;12.20;;;6.07;;
3867;SDS011;1949;48.152;11.528;2024-03-02T05:09:53;12.70;;;7.20;;
3867;SDS011;1949;48.152;11.528;2024-03-02T05:12:19;9.97;;;5.50;;
3867;SDS011;1949;48.152;11.528;2024-03-02T05:15:03;7.90;;;5.40;;
3867;SDS011;1949;48.152;11.528;2024-03-02T05:17:29;10.43;;;5.90;;
3867;SDS011;1949;48.152;11.528;2024-03-02T05:19:59;8.50;;;5.53;;
3867;SDS011;1949;48.152;11.528;2024-03-02T05:22:31;12.10;;;5.67;;
3867;SDS011;1949;48.152;11.528;2024-03-02T05:24:58;10.00;;;5.60;;
3867;SDS011;1949;48.152;11.528;2024-03-02T05:30:28;7.80;;;5.47;;
3867;SDS011;1949;48.152;11.528;2024-03-02T05:32:56;9.60;;;5.30;;
3867;SDS011;1949;48.152;11.528;2024-03-02T05:35:22;10.63;;;6.00;;
3867;SDS011;1949;48.152;11.528;2024-03-02T05:37:55;11.17;;;6.00;;
3867;SDS011;1949;48.152;11.528;2024-03-02T05:40:21;9.70;;;4.93;;
3867;SDS011;1949;48.152;11.528;2024-03-02T05:42:47;10.10;;;6.13;;
3867;SDS011;1949;48.152;11.528;2024-03-02T05:45:13;10.57;;;6.53;;
3867;SDS011;1949;48.152;11.528;2024-03-02T05:47:42;13.37;;;6.60;;
3867;SDS011;1949;48.152;11.528;2024-03-02T05:50:07;17.97;;;8.50;;
3867;SDS011;1949;48.152;11.528;2024-03-02T05:55:04;12.87;;;7.20;;
3867;SDS011;1949;48.152;11.528;2024-03-02T05:57:30;11.13;;;6.60;;
3867;SDS011;1949;48.152;11.528;2024-03-02T06:00:11;10.47;;;6.13;;
3867;SDS011;1949;48.152;11.528;2024-03-02T06:02:45;14.20;;;6.80;;
3867;SDS011;1949;48.152;11.528;2024-03-02T06:05:11;13.27;;;6.50;;
3867;SDS011;1949;48.152;11.528;2024-03-02T06:07:37;11.90;;;6.43;;
3867;SDS011;1949;48.152;11.528;2024-03-02T06:12:34;10.77;;;5.93;;
3867;SDS011;1949;48.152;11.528;2024-03-02T06:15:00;15.20;;;6.73;;
3867;SDS011;1949;48.152;11.528;2024-03-02T06:17:26;14.17;;;6.80;;
3867;SDS011;1949;48.152;11.528;2024-03-02T06:19:53;13.40;;;7.50;;
3867;SDS011;1949;48.152;11.528;2024-03-02T06:22:20;14.27;;;6.60;;
3867;SDS011;1949;48.152;11.528;2024-03-02T06:24:46;10.87;;;6.80;;
3867;SDS011;1949;48.152;11.528;2024-03-02T06:29:43;11.40;;;6.23;;
3867;SDS011;1949;48.152;11.528;2024-03-02T06:32:08;12.80;;;6.60;;
3867;SDS011;1949;48.152;11.528;2024-03-02T06:34:34;14.37;;;6.97;;
3867;SDS011;1949;48.152;11.528;2024-03-02T06:37:03;12.90;;;6.43;;
3867;SDS011;1949;48.152;11.528;2024-03-02T06:42:02;14.00;;;7.10;;
3867;SDS011;1949;48.152;11.528;2024-03-02T06:44:33;15.20;;;7.53;;
3867;SDS011;1949;48.152;11.528;2024-03-02T06:47:00;14.63;;;7.47;;
3867;SDS011;1949;48.152;11.528;2024-03-02T06:52:03;13.40;;;7.00;;
3867;SDS011;1949;48.152;11.528;2024-03-02T06:54:33;12.27;;;6.57;;
3867;SDS011;1949;48.152;11.528;2024-03-02T06:57:01;15.97;;;7.80;;
3867;SDS011;1949;48.152;11.528;2024-03-02T06:59:27;16.37;;;7.23;;
3867;SDS011;1949;48.152;11.528;2024-03-02T07:01:53;13.27;;;7.73;;
3867;SDS011;1949;48.152;11.528;2024-03-02T07:04:20;12.60;;;6.27;;
3867;SDS011;1949;48.152;11.528;2024-03-02T07:06:47;13.30;;;7.00;;
3867;SDS011;1949;48.152;11.528;2024-03-02T07:09:15;13.13;;;6.60;;
3867;SDS011;1949;48.152;11.528;2024-03-02T07:14:16;17.20;;;9.07;;
3867;SDS011;1949;48.152;11.528;2024-03-02T07:16:41;17.13;;;8.47;;
3867;SDS011;1949;48.152;11.528;2024-03-02T07:19:08;15.87;;;7.37;;
3867;SDS011;1949;48.152;11.528;2024-03-02T07:21:35;11.57;;;6.93;;
3867;SDS011;1949;48.152;11.528;2024-03-02T07:26:30;12.77;;;6.60;;
3867;SDS011;1949;48.152;11.528;2024-03-02T07:31:38;13.07;;;6.90;;
3867;SDS011;1949;48.152;11.528;2024-03-02T07:34:06;14.43;;;8.23;;
3867;SDS011;1949;48.152;11.528;2024-03-02T07:36:34;15.30;;;8.03;;
3867;SDS011;1949;48.152;11.528;2024-03-02T07:39:01;27.90;;;11.03;;
3867;SDS011;1949;48.152;11.528;2024-03-02T07:41:27;21.10;;;9.93;;
3867;SDS011;1949;48.152;11.528;2024-03-02T07:43:54;15.00;;;8.07;;
3867;SDS011;1949;48.152;11.528;2024-03-02T07:46:22;18.80;;;8.47;;
3867;SDS011;1949;48.152;11.528;2024-03-02T07:48:54;17.60;;;8.13;;
3867;SDS011;1949;48.152;11.528;2024-03-02T07:51:25;18.70;;;8.77;;
3867;SDS011;1949;48.152;11.528;2024-03-02T07:53:53;20.03;;;9.60;;
3867;SDS011;1949;48.152;11.528;2024-03-02T07:56:19;19.67;;;8.30;;
3867;SDS011;1949;48.152;11.528;2024-03-02T07:58:47;18.13;;;9.60;;
3867;SDS011;1949;48.152;11.528;2024-03-02T08:01:21;28.93;;;13.90;;
3867;SDS011;1949;48.152;11.528;2024-03-02T08:03:46;20.63;;;9.67;;
3867;SDS011;1949;48.152;11.528;2024-03-02T08:06:19;36.00;;;15.87;;
3867;SDS011;1949;48.152;11.528;2024-03-02T08:11:35;16.60;;;8.20;;
3867;SDS011;1949;48.152;11.528;2024-03-02T08:14:04;16.47;;;8.73;;
3867;SDS011;1949;48.152;11.528;2024-03-02T08:19:11;20.50;;;9.57;;
3867;SDS011;1949;48.152;11.528;2024-03-02T08:24:16;18.70;;;8.30;;
3867;SDS011;1949;48.152;11.528;2024-03-02T08:26:43;17.63;;;7.30;;
3867;SDS011;1949;48.152;11.528;2024-03-02T08:29:11;16.03;;;7.63;;
3867;SDS011;1949;48.152;11.528;2024-03-02T08:31:40;21.37;;;7.20;;
3867;SDS011;1949;48.152;11.528;2024-03-02T08:34:05;11.60;;;6.70;;
3867;SDS011;1949;48.152;11.528;2024-03-02T08:36:38;15.70;;;7.40;;
3867;SDS011;1949;48.152;11.528;2024-03-02T08:39:05;14.67;;;6.13;;
3867;SDS011;1949;48.152;11.528;2024-03-02T08:41:40;17.10;;;7.07;;
3867;SDS011;1949;48.152;11.528;2024-03-02T08:44:15;12.10;;;6.77;;
3867;SDS011;1949;48.152;11.528;2024-03-02T08:46:42;12.80;;;6.30;;
3867;SDS011;1949;48.152;11.528;2024-03-02T08:49:09;15.97;;;6.93;;
3867;SDS011;1949;48.152;11.528;2024-03-02T08:51:41;19.00;;;9.17;;
3867;SDS011;1949;48.152;11.528;2024-03-02T08:57:29;17.40;;;8.40;;
3867;SDS011;1949;48.152;11.528;2024-03-02T08:59:55;13.40;;;7.23;;
3867;SDS011;1949;48.152;11.528;2024-03-02T09:02:20;16.83;;;7.40;;
3867;SDS011;1949;48.152;11.528;2024-03-02T09:04:46;19.03;;;7.93;;
3867;SDS011;1949;48.152;11.528;2024-03-02T09:07:13;17.73;;;8.20;;
3867;SDS011;1949;48.152;11.528;2024-03-02T09:09:42;21.50;;;10.20;;
3867;SDS011;1949;48.152;11.528;2024-03-02T09:12:08;26.07;;;10.93;;
3867;SDS011;1949;48.152;11.528;2024-03-02T09:14:33;19.60;;;9.93;;
3867;SDS011;1949;48.152;11.528;2024-03-02T09:17:01;29.73;;;11.63;;
3867;SDS011;1949;48.152;11.528;2024-03-02T09:19:27;21.90;;;10.47;;
3867;SDS011;1949;48.152;11.528;2024-03-02T09:21:53;19.70;;;9.30;;
3867;SDS011;1949;48.152;11.528;2024-03-02T09:24:20;19.03;;;10.03;;
3867;SDS011;1949;48.152;11.528;2024-03-02T09:26:46;22.50;;;10.20;;
3867;SDS011;1949;48.152;11.528;2024-03-02T09:29:12;21.00;;;10.40;;
3867;SDS011;1949;48.152;11.528;2024-03-02T09:31:41;16.70;;;9.63;;
3867;SDS011;1949;48.152;11.528;2024-03-02T09:34:13;25.73;;;11.57;;
3867;SDS011;1949;48.152;11.528;2024-03-02T09:36:41;19.97;;;10.37;;
3867;SDS011;1949;48.152;11.528;2024-03-02T09:39:07;21.33;;;10.43;;
3867;SDS011;1949;48.152;11.528;2024-03-02T09:41:35;27.80;;;10.83;;
3867;SDS011;1949;48.152;11.528;2024-03-02T09:44:04;22.83;;;10.20;;
3867;SDS011;1949;48.152;11.528;2024-03-02T09:46:31;17.73;;;9.40;;
3867;SDS011;1949;48.152;11.528;2024-03-02T09:48:57;19.17;;;9.90;;
3867;SDS011;1949;48.152;11.528;2024-03-02T09:51:23;19.93;;;9.53;;
3867;SDS011;1949;48.152;11.528;2024-03-02T09:53:49;15.20;;;7.40;;
3867;SDS011;1949;48.152;11.528;2024-03-02T09:56:16;15.47;;;7.10;;
3867;SDS011;1949;48.152;11.528;2024-03-02T09:58:43;15.13;;;8.73;;
3867;SDS011;1949;48.152;11.528;2024-03-02T10:01:09;14.60;;;7.00;;
3867;SDS011;1949;48.152;11.528;2024-03-02T10:03:36;18.77;;;8.37;;
3867;SDS011;1949;48.152;11.528;2024-03-02T10:08:49;19.27;;;8.03;;
3867;SDS011;1949;48.152;11.528;2024-03-02T10:16:42;15.07;;;6.87;;
3867;SDS011;1949;48.152;11.528;2024-03-02T10:19:19;14.20;;;4.97;;
3867;SDS011;1949;48.152;11.528;2024-03-02T10:21:49;10.83;;;6.30;;
3867;SDS011;1949;48.152;11.528;2024-03-02T10:24:16;10.67;;;5.60;;
3867;SDS011;1949;48.152;11.528;2024-03-02T10:26:42;9.50;;;5.57;;
3867;SDS011;1949;48.152;11.528;2024-03-02T10:29:09;12.30;;;7.10;;
3867;SDS011;1949;48.152;11.528;2024-03-02T10:31:37;12.27;;;5.53;;
3867;SDS011;1949;48.152;11.528;2024-03-02T10:34:03;18.20;;;6.87;;
3867;SDS011;1949;48.152;11.528;2024-03-02T10:36:29;13.13;;;5.87;;
3867;SDS011;1949;48.152;11.528;2024-03-02T10:39:05;11.43;;;5.80;;
3867;SDS011;1949;48.152;11.528;2024-03-02T10:41:32;10.67;;;5.50;;
3867;SDS011;1949;48.152;11.528;2024-03-02T10:44:03;11.03;;;5.20;;
3867;SDS011;1949;48.152;11.528;2024-03-02T10:46:32;13.50;;;6.00;;
3867;SDS011;1949;48.152;11.528;2024-03-02T10:49:00;13.57;;;5.47;;
3867;SDS011;1949;48.152;11.528;2024-03-02T10:51:29;11.37;;;5.83;;
3867;SDS011;1949;48.152;11.528;2024-03-02T10:53:58;12.57;;;6.33;;
3867;SDS011;1949;48.152;11.528;2024-03-02T10:56:30;10.43;;;5.90;;
3867;SDS011;1949;48.152;11.528;2024-03-02T11:01:43;11.43;;;5.47;;
3867;SDS011;1949;48.152;11.528;2024-03-02T11:04:13;9.47;;;5.07;;
3867;SDS011;1949;48.152;11.528;2024-03-02T11:06:48;10.93;;;4.90;;
3867;SDS011;1949;48.152;11.528;2024-03-02T11:09:14;10.80;;;5.17;;
3867;SDS011;1949;48.152;11.528;2024-03-02T11:11:43;10.80;;;4.77;;
3867;SDS011;1949;48.152;11.528;2024-03-02T11:14:14;10.17;;;5.03;;
3867;SDS011;1949;48.152;11.528;2024-03-02T11:16:47;13.90;;;5.80;;
3867;SDS011;1949;48.152;11.528;2024-03-02T11:19:16;22.13;;;7.93;;
3867;SDS011;1949;48.152;11.528;2024-03-02T11:21:43;12.50;;;6.20;;
3867;SDS011;1949;48.152;11.528;2024-03-02T11:26:53;19.67;;;7.53;;
3867;SDS011;1949;48.152;11.528;2024-03-02T11:32:06;19.13;;;7.43;;
3867;SDS011;1949;48.152;11.528;2024-03-02T11:34:50;14.13;;;6.43;;
3867;SDS011;1949;48.152;11.528;2024-03-02T11:37:17;14.17;;;7.20;;
3867;SDS011;1949;48.152;11.528;2024-03-02T11:39:51;13.60;;;6.63;;
3867;SDS011;1949;48.152;11.528;2024-03-02T11:42:17;17.63;;;7.37;;
3867;SDS011;1949;48.152;11.528;2024-03-02T11:44:50;13.73;;;7.00;;
3867;SDS011;1949;48.152;11.528;2024-03-02T11:47:16;19.33;;;7.10;;
3867;SDS011;1949;48.152;11.528;2024-03-02T11:52:19;18.90;;;8.57;;
3867;SDS011;1949;48.152;11.528;2024-03-02T11:54:48;22.10;;;9.17;;
3867;SDS011;1949;48.152;11.528;2024-03-02T11:57:17;25.90;;;9.57;;
3867;SDS011;1949;48.152;11.528;2024-03-02T12:02:20;18.07;;;8.90;;
3867;SDS011;1949;48.152;11.528;2024-03-02T12:04:48;18.00;;;7.83;;
3867;SDS011;1949;48.152;11.528;2024-03-02T12:07:18;17.07;;;8.33;;
3867;SDS011;1949;48.152;11.528;2024-03-02T12:12:35;23.97;;;10.93;;
3867;SDS011;1949;48.152;11.528;2024-03-02T12:15:09;24.27;;;10.20;;
3867;SDS011;1949;48.152;11.528;2024-03-02T12:17:35;29.07;;;11.47;;
3867;SDS011;1949;48.152;11.528;2024-03-02T12:22:32;24.43;;;12.10;;
3867;SDS011;1949;48.152;11.528;2024-03-02T12:24:58;28.13;;;11.80;;
3867;SDS011;1949;48.152;11.528;2024-03-02T12:27:25;28.07;;;10.63;;
3867;SDS011;1949;48.152;11.528;2024-03-02T12:32:20;22.83;;;9.80;;
3867;SDS011;1949;48.152;11.528;2024-03-02T12:34:48;27.70;;;10.70;;
3867;SDS011;1949;48.152;11.528;2024-03-02T12:37:16;23.50;;;11.10;;
3867;SDS011;1949;48.152;11.528;2024-03-02T12:42:23;23.73;;;10.37;;
3867;SDS011;1949;48.152;11.528;2024-03-02T12:44:55;22.57;;;9.33;;
3867;SDS011;1949;48.152;11.528;2024-03-02T12:49:53;19.40;;;10.57;;
3867;SDS011;1949;48.152;11.528;2024-03-02T12:52:19;37.60;;;11.87;;
3867;SDS011;1949;48.152;11.528;2024-03-02T12:54:47;21.70;;;9.83;;
3867;SDS011;1949;48.152;11.528;2024-03-02T12:57:18;37.43;;;10.97;;
3867;SDS011;1949;48.152;11.528;2024-03-02T12:59:58;21.10;;;10.60;;
3867;SDS011;1949;48.152;11.528;2024-03-02T13:02:28;22.17;;;11.10;;
3867;SDS011;1949;48.152;11.528;2024-03-02T13:04:58;35.53;;;12.40;;
3867;SDS011;1949;48.152;11.528;2024-03-02T13:07:24;32.10;;;12.63;;
3867;SDS011;1949;48.152;11.528;2024-03-02T13:09:51;29.33;;;13.37;;
3867;SDS011;1949;48.152;11.528;2024-03-02T13:12:25;29.57;;;14.87;;
3867;SDS011;1949;48.152;11.528;2024-03-02T13:14:54;35.00;;;12.73;;
3867;SDS011;1949;48.152;11.528;2024-03-02T13:20:33;77.87;;;34.37;;
3867;SDS011;1949;48.152;11.528;2024-03-02T13:23:04;51.63;;;23.30;;
3867;SDS011;1949;48.152;11.528;2024-03-02T13:25:30;34.53;;;16.00;;
3867;SDS011;1949;48.152;11.528;2024-03-02T13:30:53;27.87;;;13.77;;
3867;SDS011;1949;48.152;11.528;2024-03-02T13:33:20;67.43;;;27.93;;
3867;SDS011;1949;48.152;11.528;2024-03-02T13:44:21;26.03;;;14.20;;
3867;SDS011;1949;48.152;11.528;2024-03-02T13:53:36;24.67;;;11.50;;
3867;SDS011;1949;48.152;11.528;2024-03-02T13:56:02;89.97;;;38.30;;
3867;SDS011;1949;48.152;11.528;2024-03-02T13:58:28;90.97;;;42.03;;
3867;SDS011;1949;48.152;11.528;2024-03-02T14:00:54;46.03;;;22.13;;
3867;SDS011;1949;48.152;11.528;2024-03-02T14:03:22;46.40;;;16.50;;
3867;SDS011;1949;48.152;11.528;2024-03-02T14:05:49;27.60;;;13.97;;
3867;SDS011;1949;48.152;11.528;2024-03-02T14:08:17;28.70;;;15.10;;
3867;SDS011;1949;48.152;11.528;2024-03-02T14:10:44;33.13;;;17.60;;
3867;SDS011;1949;48.152;11.528;2024-03-02T14:13:13;35.50;;;16.20;;
3867;SDS011;1949;48.152;11.528;2024-03-02T14:15:41;101.53;;;50.17;;
3867;SDS011;1949;48.152;11.528;2024-03-02T14:20:48;50.30;;;24.73;;
3867;SDS011;1949;48.152;11.528;2024-03-02T14:26:19;84.30;;;35.00;;
3867;SDS011;1949;48.152;11.528;2024-03-02T14:28:46;99.73;;;39.07;;
3867;SDS011;1949;48.152;11.528;2024-03-02T14:34:20;35.40;;;17.97;;
3867;SDS011;1949;48.152;11.528;2024-03-02T14:36:49;92.20;;;43.47;;
3867;SDS011;1949;48.152;11.528;2024-03-02T14:39:30;41.97;;;19.67;;
3867;SDS011;1949;48.152;11.528;2024-03-02T14:42:00;83.73;;;41.30;;
3867;SDS011;1949;48.152;11.528;2024-03-02T14:44:43;87.80;;;43.37;;
3867;SDS011;1949;48.152;11.528;2024-03-02T14:47:10;42.83;;;22.07;;
3867;SDS011;1949;48.152;11.528;2024-03-02T14:49:39;90.90;;;43.93;;
3867;SDS011;1949;48.152;11.528;2024-03-02T14:52:06;95.93;;;45.17;;
3867;SDS011;1949;48.152;11.528;2024-03-02T14:54:41;61.70;;;30.33;;
3867;SDS011;1949;48.152;11.528;2024-03-02T14:57:08;36.93;;;19.33;;
3867;SDS011;1949;48.152;11.528;2024-03-02T14:59:38;57.93;;;30.73;;
3867;SDS011;1949;48.152;11.528;2024-03-02T15:02:07;77.93;;;39.30;;
3867;SDS011;1949;48.152;11.528;2024-03-02T15:10:07;27.83;;;14.43;;
3867;SDS011;1949;48.152;11.528;2024-03-02T15:12:37;136.23;;;63.90;;
3867;SDS011;1949;48.152;11.528;2024-03-02T15:15:10;133.60;;;58.17;;
3867;SDS011;1949;48.152;11.528;2024-03-02T15:17:44;57.67;;;27.50;;
3867;SDS011;1949;48.152;11.528;2024-03-02T15:20:10;34.40;;;17.20;;
3867;SDS011;1949;48.152;11.528;2024-03-02T15:22:38;27.70;;;15.53;;
3867;SDS011;1949;48.152;11.528;2024-03-02T15:25:09;27.17;;;13.07;;
3867;SDS011;1949;48.152;11.528;2024-03-02T15:27:35;24.73;;;13.30;;
3867;SDS011;1949;48.152;11.528;2024-03-02T15:30:01;32.20;;;13.30;;
3867;SDS011;1949;48.152;11.528;2024-03-02T15:32:27;25.73;;;12.77;;
3867;SDS011;1949;48.152;11.528;2024-03-02T15:34:54;24.17;;;12.97;;
3867;SDS011;1949;48.152;11.528;2024-03-02T15:37:27;28.57;;;14.53;;
3867;SDS011;1949;48.152;11.528;2024-03-02T15:39:55;29.13;;;14.87;;
3867;SDS011;1949;48.152;11.528;2024-03-02T15:42:21;29.47;;;15.33;;
3867;SDS011;1949;48.152;11.528;2024-03-02T15:44:52;40.83;;;16.43;;
3867;SDS011;1949;48.152;11.528;2024-03-02T15:49:47;33.83;;;14.83;;
3867;SDS011;1949;48.152;11.528;2024-03-02T15:52:16;31.10;;;13.70;;
3867;SDS011;1949;48.152;11.528;2024-03-02T15:54:48;30.77;;;14.80;;
3867;SDS011;1949;48.152;11.528;2024-03-02T15:57:17;26.40;;;15.03;;
3867;SDS011;1949;48.152;11.528;2024-03-02T15:59:43;33.43;;;16.07;;
3867;SDS011;1949;48.152;11.528;2024-03-02T16:02:09;30.67;;;13.90;;
3867;SDS011;1949;48.152;11.528;2024-03-02T16:04:35;34.97;;;15.37;;
3867;SDS011;1949;48.152;11.528;2024-03-02T16:07:01;35.17;;;15.17;;
3867;SDS011;1949;48.152;11.528;2024-03-02T16:11:57;27.13;;;13.77;;
3867;SDS011;1949;48.152;11.528;2024-03-02T16:16:54;31.83;;;14.60;;
3867;SDS011;1949;48.152;11.528;2024-03-02T16:19:19;29.23;;;13.97;;
3867;SDS011;1949;48.152;11.528;2024-03-02T16:21:45;29.43;;;13.80;;
3867;SDS011;1949;48.152;11.528;2024-03-02T16:24:13;22.97;;;12.83;;
3867;SDS011;1949;48.152;11.528;2024-03-02T16:26:38;29.70;;;12.30;;
3867;SDS011;1949;48.152;11.528;2024-03-02T16:29:04;24.67;;;12.53;;
3867;SDS011;1949;48.152;11.528;2024-03-02T16:31:35;32.10;;;13.60;;
3867;SDS011;1949;48.152;11.528;2024-03-02T16:34:02;28.47;;;13.17;;
3867;SDS011;1949;48.152;11.528;2024-03-02T16:38:59;24.80;;;12.10;;
3867;SDS011;1949;48.152;11.528;2024-03-02T16:41:27;28.23;;;11.87;;
3867;SDS011;1949;48.152;11.528;2024-03-02T16:43:54;26.23;;;11.27;;
3867;SDS011;1949;48.152;11.528;2024-03-02T16:46:21;28.57;;;12.00;;
3867;SDS011;1949;48.152;11.528;2024-03-02T16:48:47;27.97;;;12.57;;
3867;SDS011;1949;48.152;11.528;2024-03-02T16:51:12;26.47;;;11.73;;
3867;SDS011;1949;48.152;11.528;2024-03-02T16:53:39;29.77;;;11.60;;
3867;SDS011;1949;48.152;11.528;2024-03-02T16:56:05;27.23;;;12.10;;
3867;SDS011;1949;48.152;11.528;2024-03-02T16:58:31;26.90;;;11.53;;
3867;SDS011;1949;48.152;11.528;2024-03-02T17:00:57;28.40;;;11.23;;
3867;SDS011;1949;48.152;11.528;2024-03-02T17:03:25;36.27;;;13.73;;
3867;SDS011;1949;48.152;11.528;2024-03-02T17:05:52;30.63;;;12.97;;
3867;SDS011;1949;48.152;11.528;2024-03-02T17:08:20;35.10;;;13.07;;
3867;SDS011;1949;48.152;11.528;2024-03-02T17:10:47;24.23;;;12.43;;
3867;SDS011;1949;48.152;11.528;2024-03-02T17:13:15;39.37;;;10.50;;
3867;SDS011;1949;48.152;11.528;2024-03-02T17:15:40;26.67;;;11.03;;
3867;SDS011;1949;48.152;11.528;2024-03-02T17:18:06;27.13;;;10.60;;
3867;SDS011;1949;48.152;11.528;2024-03-02T17:20:32;19.70;;;10.30;;
3867;SDS011;1949;48.152;11.528;2024-03-02T17:22:58;27.97;;;11.73;;
3867;SDS011;1949;48.152;11.528;2024-03-02T17:25:26;30.60;;;13.77;;
3867;SDS011;1949;48.152;11.528;2024-03-02T17:30:42;30.73;;;11.70;;